PTFLR SNSG-SNRU
Flight info
| Callsign | PTFLR |
|---|---|
| Flight time | 1h 20m |
| Altitude | 7500 |
| Route | 0807S03851W 0810S03831W 0815S03752W 0824S03705W 0822S03622W |
| Aircraft | C208/L-SDFGR/C |
Departure
| Time | 2026-04-12 18:55 |
|---|---|
| Airport | Salgueiro Airport (SNSG) |
Arrival
| Time | 2026-04-12 20:15 |
|---|---|
| Airport | Caruaru Airport (SNRU) |
| Time | Latitude | Longitude | Altitude | Speed | Heading |
|---|---|---|---|---|---|
| 2026-04-12 18:35 | -8.04522 | -39.13553 | 1545 ft | 0 kts | 234° |
| 2026-04-12 18:45 | -8.04520 | -39.13550 | 1545 ft | 3 kts | 234° |
| 2026-04-12 18:45 | -8.04512 | -39.13539 | 1539 ft | 1 kts | 223° |
| 2026-04-12 18:45 | -8.04507 | -39.13536 | 1536 ft | 1 kts | 198° |
| 2026-04-12 18:45 | -8.04502 | -39.13536 | 1539 ft | 1 kts | 158° |
| 2026-04-12 18:46 | -8.04497 | -39.13539 | 1540 ft | 1 kts | 146° |
| 2026-04-12 18:46 | -8.04494 | -39.13540 | 1543 ft | 0 kts | 145° |
| 2026-04-12 18:50 | -8.04501 | -39.13536 | 1539 ft | 1 kts | 145° |
| 2026-04-12 18:50 | -8.04513 | -39.13526 | 1543 ft | 4 kts | 127° |
| 2026-04-12 18:50 | -8.04508 | -39.13504 | 1546 ft | 3 kts | 53° |
| 2026-04-12 18:51 | -8.04485 | -39.13489 | 1547 ft | 6 kts | 354° |
| 2026-04-12 18:51 | -8.04434 | -39.13518 | 1545 ft | 11 kts | 327° |
| 2026-04-12 18:51 | -8.04365 | -39.13566 | 1538 ft | 11 kts | 323° |
| 2026-04-12 18:51 | -8.04319 | -39.13601 | 1547 ft | 6 kts | 322° |
| 2026-04-12 18:52 | -8.04289 | -39.13628 | 1547 ft | 7 kts | 317° |
| 2026-04-12 18:52 | -8.04258 | -39.13640 | 1549 ft | 3 kts | 101° |
| 2026-04-12 18:52 | -8.04268 | -39.13632 | 1549 ft | 0 kts | 147° |
| 2026-04-12 18:53 | -8.04288 | -39.13618 | 1541 ft | 18 kts | 146° |
| 2026-04-12 18:53 | -8.04530 | -39.13441 | 1538 ft | 66 kts | 143° |
| 2026-04-12 18:54 | -8.04993 | -39.13107 | 1623 ft | 91 kts | 145° |
| 2026-04-12 18:54 | -8.05545 | -39.12699 | 1708 ft | 109 kts | 142° |
| 2026-04-12 18:54 | -8.06134 | -39.12184 | 1906 ft | 108 kts | 131° |
| 2026-04-12 18:54 | -8.06516 | -39.11559 | 2139 ft | 105 kts | 111° |
| 2026-04-12 18:55 | -8.06612 | -39.10823 | 2367 ft | 109 kts | 91° |
| 2026-04-12 18:55 | -8.06564 | -39.10032 | 2579 ft | 115 kts | 91° |
| 2026-04-12 18:55 | -8.06512 | -39.09250 | 2779 ft | 109 kts | 90° |
| 2026-04-12 18:55 | -8.06475 | -39.08484 | 2998 ft | 110 kts | 91° |
| 2026-04-12 18:56 | -8.06446 | -39.07710 | 3220 ft | 111 kts | 91° |
| 2026-04-12 18:56 | -8.06412 | -39.06901 | 3361 ft | 119 kts | 94° |
| 2026-04-12 18:56 | -8.06539 | -39.06064 | 3495 ft | 124 kts | 106° |
| 2026-04-12 18:56 | -8.06730 | -39.05201 | 3626 ft | 127 kts | 106° |
| 2026-04-12 18:57 | -8.06937 | -39.04332 | 3765 ft | 128 kts | 106° |
| 2026-04-12 18:57 | -8.07151 | -39.03441 | 3895 ft | 132 kts | 107° |
| 2026-04-12 18:57 | -8.07375 | -39.02526 | 4015 ft | 135 kts | 106° |
| 2026-04-12 18:57 | -8.07600 | -39.01613 | 4144 ft | 134 kts | 107° |
| 2026-04-12 18:58 | -8.07829 | -39.00702 | 4273 ft | 135 kts | 105° |
| 2026-04-12 18:58 | -8.08056 | -38.99768 | 4396 ft | 138 kts | 106° |
| 2026-04-12 18:58 | -8.08286 | -38.98834 | 4516 ft | 139 kts | 107° |
| 2026-04-12 18:58 | -8.08523 | -38.97878 | 4643 ft | 141 kts | 106° |
| 2026-04-12 18:59 | -8.08761 | -38.96912 | 4766 ft | 142 kts | 106° |
| 2026-04-12 18:59 | -8.08998 | -38.95946 | 4882 ft | 141 kts | 106° |
| 2026-04-12 18:59 | -8.09230 | -38.94996 | 5001 ft | 138 kts | 107° |
| 2026-04-12 18:59 | -8.09461 | -38.94062 | 5115 ft | 136 kts | 107° |
| 2026-04-12 19:00 | -8.09689 | -38.93134 | 5231 ft | 136 kts | 107° |
| 2026-04-12 19:00 | -8.09919 | -38.92204 | 5349 ft | 137 kts | 106° |
| 2026-04-12 19:00 | -8.10145 | -38.91283 | 5468 ft | 137 kts | 106° |
| 2026-04-12 19:00 | -8.10375 | -38.90347 | 5589 ft | 138 kts | 106° |
| 2026-04-12 19:01 | -8.10606 | -38.89405 | 5713 ft | 138 kts | 107° |
| 2026-04-12 19:01 | -8.10840 | -38.88460 | 5844 ft | 140 kts | 105° |
| 2026-04-12 19:01 | -8.11078 | -38.87491 | 5970 ft | 144 kts | 106° |
| 2026-04-12 19:01 | -8.11319 | -38.86513 | 6091 ft | 143 kts | 107° |
| 2026-04-12 19:02 | -8.11557 | -38.85545 | 6216 ft | 141 kts | 107° |
| 2026-04-12 19:02 | -8.11751 | -38.84587 | 6333 ft | 139 kts | 99° |
| 2026-04-12 19:02 | -8.11885 | -38.83625 | 6444 ft | 139 kts | 102° |
| 2026-04-12 19:02 | -8.12037 | -38.82658 | 6557 ft | 140 kts | 101° |
| 2026-04-12 19:03 | -8.12186 | -38.81687 | 6675 ft | 140 kts | 101° |
| 2026-04-12 19:03 | -8.12333 | -38.80718 | 6785 ft | 139 kts | 102° |
| 2026-04-12 19:03 | -8.12478 | -38.79751 | 6899 ft | 139 kts | 101° |
| 2026-04-12 19:03 | -8.12625 | -38.78784 | 7012 ft | 140 kts | 101° |
| 2026-04-12 19:04 | -8.12768 | -38.77826 | 7127 ft | 139 kts | 101° |
| 2026-04-12 19:04 | -8.12913 | -38.76857 | 7245 ft | 139 kts | 101° |
| 2026-04-12 19:04 | -8.13057 | -38.75895 | 7363 ft | 138 kts | 101° |
| 2026-04-12 19:04 | -8.13203 | -38.74927 | 7417 ft | 143 kts | 101° |
| 2026-04-12 19:05 | -8.13355 | -38.73922 | 7424 ft | 147 kts | 101° |
| 2026-04-12 19:05 | -8.13511 | -38.72887 | 7427 ft | 151 kts | 101° |
| 2026-04-12 19:05 | -8.13669 | -38.71837 | 7433 ft | 152 kts | 101° |
| 2026-04-12 19:05 | -8.13828 | -38.70779 | 7429 ft | 153 kts | 101° |
| 2026-04-12 19:06 | -8.13987 | -38.69715 | 7431 ft | 154 kts | 101° |
| 2026-04-12 19:06 | -8.14148 | -38.68644 | 7430 ft | 154 kts | 101° |
| 2026-04-12 19:06 | -8.14309 | -38.67572 | 7426 ft | 154 kts | 101° |
| 2026-04-12 19:06 | -8.14467 | -38.66505 | 7427 ft | 154 kts | 100° |
| 2026-04-12 19:07 | -8.14626 | -38.65445 | 7424 ft | 152 kts | 101° |
| 2026-04-12 19:07 | -8.14785 | -38.64389 | 7423 ft | 152 kts | 101° |
| 2026-04-12 19:07 | -8.14941 | -38.63345 | 7424 ft | 152 kts | 100° |
| 2026-04-12 19:07 | -8.15099 | -38.62288 | 7424 ft | 152 kts | 100° |
| 2026-04-12 19:08 | -8.15258 | -38.61231 | 7424 ft | 153 kts | 101° |
| 2026-04-12 19:08 | -8.15418 | -38.60165 | 7421 ft | 153 kts | 100° |
| 2026-04-12 19:08 | -8.15577 | -38.59100 | 7423 ft | 153 kts | 100° |
| 2026-04-12 19:08 | -8.15684 | -38.58397 | 7426 ft | 154 kts | 100° |
| 2026-04-12 19:09 | -8.15843 | -38.57325 | 7424 ft | 154 kts | 101° |
| 2026-04-12 19:09 | -8.16003 | -38.56257 | 7423 ft | 154 kts | 100° |
| 2026-04-12 19:09 | -8.16216 | -38.54841 | 7421 ft | 154 kts | 100° |
| 2026-04-12 19:09 | -8.16375 | -38.53770 | 7420 ft | 154 kts | 100° |
| 2026-04-12 19:10 | -8.16483 | -38.53049 | 7419 ft | 153 kts | 100° |
| 2026-04-12 19:10 | -8.16642 | -38.51985 | 7418 ft | 153 kts | 100° |
| 2026-04-12 19:10 | -8.16758 | -38.50918 | 7418 ft | 153 kts | 98° |
| 2026-04-12 19:10 | -8.16958 | -38.49509 | 7417 ft | 153 kts | 100° |
| 2026-04-12 19:11 | -8.17055 | -38.48803 | 7417 ft | 154 kts | 99° |
| 2026-04-12 19:11 | -8.17196 | -38.47731 | 7416 ft | 155 kts | 99° |
| 2026-04-12 19:11 | -8.17335 | -38.46661 | 7416 ft | 154 kts | 99° |
| 2026-04-12 19:11 | -8.17473 | -38.45592 | 7416 ft | 153 kts | 99° |
| 2026-04-12 19:12 | -8.17611 | -38.44527 | 7417 ft | 153 kts | 99° |
| 2026-04-12 19:12 | -8.17748 | -38.43460 | 7413 ft | 153 kts | 99° |
| 2026-04-12 19:12 | -8.17884 | -38.42393 | 7411 ft | 154 kts | 99° |
| 2026-04-12 19:12 | -8.18023 | -38.41324 | 7411 ft | 154 kts | 99° |
| 2026-04-12 19:13 | -8.18161 | -38.40254 | 7416 ft | 154 kts | 99° |
| 2026-04-12 19:13 | -8.18299 | -38.39181 | 7413 ft | 154 kts | 99° |
| 2026-04-12 19:13 | -8.18437 | -38.38111 | 7413 ft | 154 kts | 99° |
| 2026-04-12 19:13 | -8.18573 | -38.37054 | 7408 ft | 154 kts | 99° |
| 2026-04-12 19:14 | -8.18711 | -38.35980 | 7410 ft | 154 kts | 99° |
| 2026-04-12 19:14 | -8.18849 | -38.34906 | 7409 ft | 154 kts | 99° |
| 2026-04-12 19:14 | -8.18988 | -38.33830 | 7410 ft | 154 kts | 99° |
| 2026-04-12 19:14 | -8.19126 | -38.32755 | 7413 ft | 154 kts | 99° |
| 2026-04-12 19:15 | -8.19264 | -38.31680 | 7407 ft | 154 kts | 99° |
| 2026-04-12 19:15 | -8.19402 | -38.30604 | 7407 ft | 154 kts | 99° |
| 2026-04-12 19:15 | -8.19540 | -38.29531 | 7406 ft | 154 kts | 99° |
| 2026-04-12 19:15 | -8.19676 | -38.28471 | 7404 ft | 154 kts | 99° |
| 2026-04-12 19:16 | -8.19814 | -38.27400 | 7409 ft | 154 kts | 99° |
| 2026-04-12 19:16 | -8.19952 | -38.26325 | 7409 ft | 154 kts | 99° |
| 2026-04-12 19:16 | -8.20086 | -38.25253 | 7408 ft | 154 kts | 99° |
| 2026-04-12 19:16 | -8.20226 | -38.24180 | 7409 ft | 154 kts | 99° |
| 2026-04-12 19:17 | -8.20365 | -38.23103 | 7407 ft | 154 kts | 99° |
| 2026-04-12 19:17 | -8.20501 | -38.22036 | 7410 ft | 153 kts | 99° |
| 2026-04-12 19:17 | -8.20637 | -38.20975 | 7408 ft | 152 kts | 99° |
| 2026-04-12 19:17 | -8.20772 | -38.19917 | 7408 ft | 151 kts | 99° |
| 2026-04-12 19:18 | -8.20908 | -38.18863 | 7405 ft | 152 kts | 99° |
| 2026-04-12 19:18 | -8.21040 | -38.17826 | 7410 ft | 151 kts | 99° |
| 2026-04-12 19:18 | -8.21174 | -38.16779 | 7408 ft | 150 kts | 99° |
| 2026-04-12 19:18 | -8.21308 | -38.15731 | 7408 ft | 151 kts | 99° |
| 2026-04-12 19:19 | -8.21443 | -38.14683 | 7409 ft | 151 kts | 99° |
| 2026-04-12 19:19 | -8.21578 | -38.13632 | 7408 ft | 151 kts | 99° |
| 2026-04-12 19:19 | -8.21713 | -38.12578 | 7407 ft | 151 kts | 99° |
| 2026-04-12 19:19 | -8.21848 | -38.11529 | 7409 ft | 150 kts | 99° |
| 2026-04-12 19:20 | -8.21980 | -38.10483 | 7407 ft | 150 kts | 99° |
| 2026-04-12 19:20 | -8.22115 | -38.09438 | 7413 ft | 149 kts | 99° |
| 2026-04-12 19:20 | -8.22248 | -38.08397 | 7411 ft | 150 kts | 99° |
| 2026-04-12 19:20 | -8.22382 | -38.07351 | 7413 ft | 151 kts | 99° |
| 2026-04-12 19:21 | -8.22517 | -38.06299 | 7415 ft | 152 kts | 99° |
| 2026-04-12 19:21 | -8.22652 | -38.05242 | 7415 ft | 151 kts | 99° |
| 2026-04-12 19:21 | -8.22785 | -38.04203 | 7416 ft | 151 kts | 99° |
| 2026-04-12 19:21 | -8.22919 | -38.03154 | 7416 ft | 150 kts | 99° |
| 2026-04-12 19:22 | -8.23053 | -38.02105 | 7409 ft | 151 kts | 99° |
| 2026-04-12 19:22 | -8.23187 | -38.01051 | 7413 ft | 152 kts | 99° |
| 2026-04-12 19:22 | -8.23324 | -37.99993 | 7418 ft | 152 kts | 99° |
| 2026-04-12 19:22 | -8.23461 | -37.98931 | 7419 ft | 153 kts | 99° |
| 2026-04-12 19:23 | -8.23593 | -37.97870 | 7415 ft | 152 kts | 99° |
| 2026-04-12 19:23 | -8.23728 | -37.96812 | 7417 ft | 152 kts | 99° |
| 2026-04-12 19:23 | -8.23862 | -37.95754 | 7418 ft | 152 kts | 99° |
| 2026-04-12 19:23 | -8.23997 | -37.94710 | 7415 ft | 152 kts | 99° |
| 2026-04-12 19:24 | -8.24131 | -37.93652 | 7418 ft | 151 kts | 100° |
| 2026-04-12 19:24 | -8.24265 | -37.92600 | 7418 ft | 151 kts | 100° |
| 2026-04-12 19:24 | -8.24400 | -37.91547 | 7418 ft | 151 kts | 100° |
| 2026-04-12 19:24 | -8.24534 | -37.90498 | 7416 ft | 151 kts | 99° |
| 2026-04-12 19:25 | -8.24666 | -37.89457 | 7425 ft | 147 kts | 100° |
| 2026-04-12 19:25 | -8.24797 | -37.88424 | 7419 ft | 150 kts | 99° |
| 2026-04-12 19:25 | -8.24931 | -37.87378 | 7423 ft | 151 kts | 99° |
| 2026-04-12 19:25 | -8.25096 | -37.86330 | 7423 ft | 150 kts | 106° |
| 2026-04-12 19:26 | -8.25306 | -37.85299 | 7430 ft | 150 kts | 102° |
| 2026-04-12 19:26 | -8.25490 | -37.84261 | 7430 ft | 151 kts | 102° |
| 2026-04-12 19:26 | -8.25686 | -37.83224 | 7427 ft | 150 kts | 103° |
| 2026-04-12 19:26 | -8.25882 | -37.82203 | 7429 ft | 150 kts | 102° |
| 2026-04-12 19:27 | -8.26083 | -37.81156 | 7425 ft | 150 kts | 102° |
| 2026-04-12 19:27 | -8.26282 | -37.80120 | 7430 ft | 150 kts | 103° |
| 2026-04-12 19:27 | -8.26480 | -37.79095 | 7430 ft | 150 kts | 103° |
| 2026-04-12 19:27 | -8.26680 | -37.78056 | 7430 ft | 151 kts | 103° |
| 2026-04-12 19:28 | -8.26880 | -37.77013 | 7429 ft | 151 kts | 103° |
| 2026-04-12 19:28 | -8.27081 | -37.75968 | 7431 ft | 152 kts | 104° |
| 2026-04-12 19:28 | -8.27283 | -37.74922 | 7433 ft | 152 kts | 103° |
| 2026-04-12 19:28 | -8.27484 | -37.73873 | 7434 ft | 151 kts | 103° |
| 2026-04-12 19:29 | -8.27685 | -37.72831 | 7433 ft | 151 kts | 103° |
| 2026-04-12 19:29 | -8.27885 | -37.71787 | 7432 ft | 151 kts | 103° |
| 2026-04-12 19:29 | -8.28087 | -37.70737 | 7437 ft | 154 kts | 102° |
| 2026-04-12 19:29 | -8.28290 | -37.69676 | 7433 ft | 153 kts | 103° |
| 2026-04-12 19:30 | -8.28491 | -37.68636 | 7430 ft | 152 kts | 103° |
| 2026-04-12 19:30 | -8.28691 | -37.67589 | 7430 ft | 151 kts | 104° |
| 2026-04-12 19:30 | -8.28891 | -37.66551 | 7429 ft | 150 kts | 103° |
| 2026-04-12 19:30 | -8.29089 | -37.65514 | 7427 ft | 150 kts | 103° |
| 2026-04-12 19:31 | -8.29289 | -37.64477 | 7427 ft | 151 kts | 103° |
| 2026-04-12 19:31 | -8.29488 | -37.63436 | 7424 ft | 151 kts | 103° |
| 2026-04-12 19:31 | -8.29687 | -37.62399 | 7427 ft | 151 kts | 102° |
| 2026-04-12 19:31 | -8.29885 | -37.61358 | 7432 ft | 151 kts | 104° |
| 2026-04-12 19:32 | -8.30085 | -37.60322 | 7429 ft | 150 kts | 103° |
| 2026-04-12 19:32 | -8.30283 | -37.59288 | 7428 ft | 150 kts | 102° |
| 2026-04-12 19:32 | -8.30481 | -37.58262 | 7426 ft | 151 kts | 103° |
| 2026-04-12 19:32 | -8.30680 | -37.57220 | 7427 ft | 151 kts | 103° |
| 2026-04-12 19:33 | -8.30881 | -37.56179 | 7431 ft | 151 kts | 103° |
| 2026-04-12 19:33 | -8.31082 | -37.55137 | 7433 ft | 151 kts | 103° |
| 2026-04-12 19:33 | -8.31281 | -37.54097 | 7433 ft | 151 kts | 103° |
| 2026-04-12 19:33 | -8.31481 | -37.53052 | 7432 ft | 152 kts | 103° |
| 2026-04-12 19:34 | -8.31681 | -37.52003 | 7437 ft | 153 kts | 103° |
| 2026-04-12 19:34 | -8.31882 | -37.50949 | 7437 ft | 152 kts | 104° |
| 2026-04-12 19:34 | -8.32081 | -37.49918 | 7441 ft | 152 kts | 103° |
| 2026-04-12 19:34 | -8.32281 | -37.48869 | 7441 ft | 152 kts | 104° |
| 2026-04-12 19:35 | -8.32482 | -37.47821 | 7440 ft | 152 kts | 103° |
| 2026-04-12 19:35 | -8.32682 | -37.46770 | 7439 ft | 153 kts | 102° |
| 2026-04-12 19:35 | -8.32886 | -37.45710 | 7439 ft | 154 kts | 102° |
| 2026-04-12 19:35 | -8.33091 | -37.44642 | 7440 ft | 155 kts | 103° |
| 2026-04-12 19:36 | -8.33295 | -37.43577 | 7442 ft | 155 kts | 102° |
| 2026-04-12 19:36 | -8.33499 | -37.42513 | 7450 ft | 154 kts | 103° |
| 2026-04-12 19:36 | -8.33701 | -37.41454 | 7448 ft | 154 kts | 102° |
| 2026-04-12 19:36 | -8.33903 | -37.40391 | 7447 ft | 154 kts | 102° |
| 2026-04-12 19:37 | -8.34105 | -37.39337 | 7444 ft | 155 kts | 102° |
| 2026-04-12 19:37 | -8.34309 | -37.38274 | 7446 ft | 154 kts | 103° |
| 2026-04-12 19:37 | -8.34512 | -37.37212 | 7445 ft | 154 kts | 103° |
| 2026-04-12 19:37 | -8.34715 | -37.36150 | 7445 ft | 154 kts | 103° |
| 2026-04-12 19:38 | -8.34918 | -37.35089 | 7442 ft | 154 kts | 103° |
| 2026-04-12 19:38 | -8.35121 | -37.34026 | 7446 ft | 154 kts | 102° |
| 2026-04-12 19:38 | -8.35325 | -37.32960 | 7453 ft | 155 kts | 102° |
| 2026-04-12 19:38 | -8.35529 | -37.31893 | 7456 ft | 155 kts | 103° |
| 2026-04-12 19:39 | -8.35731 | -37.30839 | 7452 ft | 155 kts | 103° |
| 2026-04-12 19:39 | -8.35934 | -37.29776 | 7452 ft | 154 kts | 103° |
| 2026-04-12 19:39 | -8.36070 | -37.29060 | 7452 ft | 154 kts | 103° |
| 2026-04-12 19:39 | -8.36338 | -37.27656 | 7450 ft | 153 kts | 102° |
| 2026-04-12 19:40 | -8.36541 | -37.26593 | 7455 ft | 155 kts | 102° |
| 2026-04-12 19:40 | -8.36746 | -37.25524 | 7455 ft | 155 kts | 102° |
| 2026-04-12 19:40 | -8.36949 | -37.24456 | 7456 ft | 155 kts | 103° |
| 2026-04-12 19:40 | -8.37153 | -37.23391 | 7462 ft | 154 kts | 103° |
| 2026-04-12 19:41 | -8.37356 | -37.22327 | 7466 ft | 154 kts | 103° |
| 2026-04-12 19:41 | -8.37559 | -37.21263 | 7465 ft | 155 kts | 102° |
| 2026-04-12 19:41 | -8.37760 | -37.20200 | 7460 ft | 154 kts | 102° |
| 2026-04-12 19:41 | -8.37958 | -37.19162 | 7466 ft | 150 kts | 103° |
| 2026-04-12 19:42 | -8.38161 | -37.18114 | 7465 ft | 153 kts | 103° |
| 2026-04-12 19:42 | -8.38362 | -37.17058 | 7466 ft | 154 kts | 103° |
| 2026-04-12 19:42 | -8.38565 | -37.15990 | 7469 ft | 155 kts | 103° |
| 2026-04-12 19:43 | -8.38976 | -37.13833 | 7470 ft | 157 kts | 103° |
| 2026-04-12 19:43 | -8.39181 | -37.12754 | 7477 ft | 156 kts | 103° |
| 2026-04-12 19:43 | -8.39385 | -37.11682 | 7480 ft | 155 kts | 103° |
| 2026-04-12 19:43 | -8.39588 | -37.10619 | 7477 ft | 154 kts | 103° |
| 2026-04-12 19:44 | -8.39790 | -37.09552 | 7480 ft | 154 kts | 103° |
| 2026-04-12 19:44 | -8.39993 | -37.08485 | 7476 ft | 155 kts | 102° |
| 2026-04-12 19:44 | -8.39992 | -37.07393 | 7474 ft | 156 kts | 88° |
| 2026-04-12 19:44 | -8.39926 | -37.06303 | 7473 ft | 155 kts | 91° |
| 2026-04-12 19:45 | -8.39880 | -37.05221 | 7472 ft | 154 kts | 89° |
| 2026-04-12 19:45 | -8.39829 | -37.04136 | 7470 ft | 154 kts | 90° |
| 2026-04-12 19:45 | -8.39781 | -37.03056 | 7476 ft | 154 kts | 89° |
| 2026-04-12 19:45 | -8.39732 | -37.01974 | 7478 ft | 154 kts | 90° |
| 2026-04-12 19:46 | -8.39683 | -37.00887 | 7475 ft | 155 kts | 90° |
| 2026-04-12 19:46 | -8.39635 | -36.99813 | 7476 ft | 155 kts | 91° |
| 2026-04-12 19:46 | -8.39582 | -36.98726 | 7477 ft | 155 kts | 91° |
| 2026-04-12 19:46 | -8.39532 | -36.97633 | 7478 ft | 157 kts | 89° |
| 2026-04-12 19:47 | -8.39483 | -36.96534 | 7478 ft | 156 kts | 91° |
| 2026-04-12 19:47 | -8.39432 | -36.95439 | 7478 ft | 156 kts | 91° |
| 2026-04-12 19:47 | -8.39384 | -36.94352 | 7478 ft | 154 kts | 90° |
| 2026-04-12 19:47 | -8.39326 | -36.93274 | 7485 ft | 154 kts | 91° |
| 2026-04-12 19:48 | -8.39284 | -36.92191 | 7482 ft | 154 kts | 90° |
| 2026-04-12 19:48 | -8.39235 | -36.91114 | 7486 ft | 153 kts | 90° |
| 2026-04-12 19:48 | -8.39185 | -36.90035 | 7484 ft | 154 kts | 90° |
| 2026-04-12 19:48 | -8.39135 | -36.88950 | 7488 ft | 155 kts | 91° |
| 2026-04-12 19:49 | -8.39084 | -36.87864 | 7487 ft | 155 kts | 91° |
| 2026-04-12 19:49 | -8.39034 | -36.86782 | 7491 ft | 157 kts | 90° |
| 2026-04-12 19:49 | -8.38985 | -36.85686 | 7493 ft | 156 kts | 90° |
| 2026-04-12 19:49 | -8.38932 | -36.84585 | 7500 ft | 157 kts | 91° |
| 2026-04-12 19:50 | -8.38881 | -36.83478 | 7498 ft | 157 kts | 92° |
| 2026-04-12 19:50 | -8.38831 | -36.82373 | 7498 ft | 158 kts | 90° |
| 2026-04-12 19:50 | -8.38780 | -36.81269 | 7494 ft | 157 kts | 90° |
| 2026-04-12 19:50 | -8.38727 | -36.80163 | 7493 ft | 158 kts | 90° |
| 2026-04-12 19:51 | -8.38679 | -36.79057 | 7503 ft | 159 kts | 92° |
| 2026-04-12 19:51 | -8.38627 | -36.77945 | 7498 ft | 158 kts | 90° |
| 2026-04-12 19:51 | -8.38573 | -36.76857 | 7496 ft | 157 kts | 91° |
| 2026-04-12 19:51 | -8.38522 | -36.75749 | 7490 ft | 156 kts | 90° |
| 2026-04-12 19:52 | -8.38473 | -36.74670 | 7495 ft | 155 kts | 91° |
| 2026-04-12 19:52 | -8.38422 | -36.73589 | 7495 ft | 153 kts | 90° |
| 2026-04-12 19:52 | -8.38372 | -36.72518 | 7497 ft | 152 kts | 91° |
| 2026-04-12 19:52 | -8.38324 | -36.71451 | 7492 ft | 152 kts | 89° |
| 2026-04-12 19:53 | -8.38275 | -36.70391 | 7494 ft | 151 kts | 89° |
| 2026-04-12 19:53 | -8.38239 | -36.69650 | 7497 ft | 151 kts | 89° |
| 2026-04-12 19:53 | -8.38224 | -36.69335 | 7499 ft | 152 kts | 90° |
| 2026-04-12 19:53 | -8.38173 | -36.68264 | 7495 ft | 153 kts | 90° |
| 2026-04-12 19:54 | -8.38127 | -36.67193 | 7501 ft | 153 kts | 91° |
| 2026-04-12 19:54 | -8.38077 | -36.66125 | 7499 ft | 152 kts | 89° |
| 2026-04-12 19:54 | -8.38024 | -36.65048 | 7500 ft | 153 kts | 89° |
| 2026-04-12 19:54 | -8.37973 | -36.63970 | 7501 ft | 154 kts | 90° |
| 2026-04-12 19:55 | -8.37927 | -36.62901 | 7506 ft | 154 kts | 91° |
| 2026-04-12 19:55 | -8.37876 | -36.61821 | 7507 ft | 154 kts | 90° |
| 2026-04-12 19:55 | -8.37824 | -36.60736 | 7506 ft | 154 kts | 91° |
| 2026-04-12 19:55 | -8.37772 | -36.59653 | 7503 ft | 154 kts | 90° |
| 2026-04-12 19:56 | -8.37722 | -36.58570 | 7505 ft | 155 kts | 89° |
| 2026-04-12 19:56 | -8.37671 | -36.57485 | 7502 ft | 154 kts | 90° |
| 2026-04-12 19:56 | -8.37621 | -36.56403 | 7509 ft | 154 kts | 91° |
| 2026-04-12 19:56 | -8.37569 | -36.55326 | 7506 ft | 153 kts | 90° |
| 2026-04-12 19:57 | -8.37517 | -36.54258 | 7507 ft | 154 kts | 90° |
| 2026-04-12 19:57 | -8.37469 | -36.53178 | 7504 ft | 154 kts | 90° |
| 2026-04-12 19:57 | -8.37418 | -36.52098 | 7501 ft | 153 kts | 90° |
| 2026-04-12 19:57 | -8.37370 | -36.51025 | 7501 ft | 152 kts | 90° |
| 2026-04-12 19:58 | -8.37314 | -36.49982 | 7499 ft | 146 kts | 91° |
| 2026-04-12 19:58 | -8.37283 | -36.49309 | 7502 ft | 144 kts | 91° |
| 2026-04-12 19:58 | -8.37236 | -36.48304 | 7501 ft | 143 kts | 89° |
| 2026-04-12 19:58 | -8.37169 | -36.46961 | 7501 ft | 142 kts | 91° |
| 2026-04-12 19:59 | -8.37123 | -36.45969 | 7503 ft | 140 kts | 91° |
| 2026-04-12 19:59 | -8.37092 | -36.45324 | 7504 ft | 138 kts | 91° |
| 2026-04-12 19:59 | -8.37025 | -36.44032 | 7504 ft | 139 kts | 90° |
| 2026-04-12 19:59 | -8.36982 | -36.43061 | 7503 ft | 138 kts | 90° |
| 2026-04-12 20:00 | -8.36953 | -36.42404 | 7506 ft | 138 kts | 90° |
| 2026-04-12 20:00 | -8.36909 | -36.41446 | 7509 ft | 137 kts | 90° |
| 2026-04-12 20:00 | -8.36864 | -36.40485 | 7511 ft | 137 kts | 91° |
| 2026-04-12 20:00 | -8.36817 | -36.39519 | 7494 ft | 139 kts | 91° |
| 2026-04-12 20:01 | -8.36769 | -36.38519 | 7382 ft | 145 kts | 91° |
| 2026-04-12 20:01 | -8.36721 | -36.37502 | 7261 ft | 144 kts | 90° |
| 2026-04-12 20:01 | -8.36650 | -36.36504 | 7139 ft | 142 kts | 84° |
| 2026-04-12 20:01 | -8.36412 | -36.35531 | 7019 ft | 142 kts | 80° |
| 2026-04-12 20:02 | -8.36189 | -36.34564 | 6902 ft | 140 kts | 81° |
| 2026-04-12 20:02 | -8.35972 | -36.33609 | 6785 ft | 139 kts | 80° |
| 2026-04-12 20:02 | -8.35752 | -36.32655 | 6662 ft | 139 kts | 79° |
| 2026-04-12 20:02 | -8.35534 | -36.31712 | 6551 ft | 140 kts | 81° |
| 2026-04-12 20:03 | -8.35318 | -36.30761 | 6430 ft | 138 kts | 82° |
| 2026-04-12 20:03 | -8.35098 | -36.29814 | 6307 ft | 138 kts | 82° |
| 2026-04-12 20:03 | -8.34876 | -36.28869 | 6189 ft | 139 kts | 82° |
| 2026-04-12 20:03 | -8.34658 | -36.27925 | 6065 ft | 138 kts | 80° |
| 2026-04-12 20:04 | -8.34441 | -36.26971 | 5949 ft | 141 kts | 81° |
| 2026-04-12 20:04 | -8.34214 | -36.26009 | 5836 ft | 141 kts | 81° |
| 2026-04-12 20:04 | -8.33995 | -36.25055 | 5705 ft | 137 kts | 82° |
| 2026-04-12 20:04 | -8.33781 | -36.24127 | 5583 ft | 135 kts | 83° |
| 2026-04-12 20:05 | -8.33571 | -36.23207 | 5456 ft | 134 kts | 81° |
| 2026-04-12 20:05 | -8.33360 | -36.22299 | 5333 ft | 133 kts | 83° |
| 2026-04-12 20:05 | -8.33152 | -36.21386 | 5208 ft | 134 kts | 82° |
| 2026-04-12 20:05 | -8.32937 | -36.20482 | 5087 ft | 131 kts | 83° |
| 2026-04-12 20:06 | -8.32731 | -36.19582 | 4963 ft | 131 kts | 81° |
| 2026-04-12 20:06 | -8.32525 | -36.18694 | 4836 ft | 132 kts | 82° |
| 2026-04-12 20:06 | -8.32334 | -36.17787 | 4717 ft | 132 kts | 82° |
| 2026-04-12 20:06 | -8.32123 | -36.16883 | 4588 ft | 132 kts | 82° |
| 2026-04-12 20:07 | -8.31918 | -36.15975 | 4471 ft | 133 kts | 82° |
| 2026-04-12 20:07 | -8.31712 | -36.15065 | 4345 ft | 133 kts | 83° |
| 2026-04-12 20:07 | -8.31505 | -36.14158 | 4224 ft | 133 kts | 81° |
| 2026-04-12 20:07 | -8.31295 | -36.13241 | 4099 ft | 135 kts | 83° |
| 2026-04-12 20:08 | -8.31085 | -36.12347 | 3976 ft | 132 kts | 83° |
| 2026-04-12 20:08 | -8.30883 | -36.11447 | 3858 ft | 132 kts | 82° |
| 2026-04-12 20:08 | -8.30678 | -36.10538 | 3734 ft | 132 kts | 82° |
| 2026-04-12 20:08 | -8.30476 | -36.09640 | 3621 ft | 133 kts | 81° |
| 2026-04-12 20:09 | -8.30266 | -36.08725 | 3508 ft | 134 kts | 81° |
| 2026-04-12 20:09 | -8.30061 | -36.07831 | 3501 ft | 127 kts | 81° |
| 2026-04-12 20:09 | -8.29814 | -36.06978 | 3456 ft | 128 kts | 75° |
| 2026-04-12 20:09 | -8.29440 | -36.06170 | 3343 ft | 124 kts | 67° |
| 2026-04-12 20:10 | -8.29060 | -36.05440 | 3261 ft | 110 kts | 71° |
| 2026-04-12 20:10 | -8.28779 | -36.04770 | 3224 ft | 101 kts | 78° |
| 2026-04-12 20:10 | -8.28646 | -36.04099 | 3219 ft | 92 kts | 93° |
| 2026-04-12 20:10 | -8.28714 | -36.03508 | 3289 ft | 80 kts | 111° |
| 2026-04-12 20:11 | -8.28884 | -36.02980 | 3290 ft | 80 kts | 114° |
| 2026-04-12 20:11 | -8.29108 | -36.02476 | 3390 ft | 76 kts | 119° |
| 2026-04-12 20:11 | -8.29348 | -36.01987 | 3473 ft | 82 kts | 119° |
| 2026-04-12 20:11 | -8.29603 | -36.01472 | 3558 ft | 84 kts | 120° |
| 2026-04-12 20:12 | -8.29857 | -36.00950 | 3622 ft | 80 kts | 116° |
| 2026-04-12 20:12 | -8.30095 | -36.00418 | 3602 ft | 86 kts | 117° |
| 2026-04-12 20:12 | -8.30345 | -35.99849 | 3585 ft | 86 kts | 117° |
| 2026-04-12 20:12 | -8.30570 | -35.99310 | 3557 ft | 86 kts | 114° |
| 2026-04-12 20:13 | -8.30688 | -35.98710 | 3352 ft | 90 kts | 92° |
| 2026-04-12 20:13 | -8.30487 | -35.98115 | 3194 ft | 92 kts | 59° |
| 2026-04-12 20:13 | -8.29276 | -35.97931 | 2812 ft | 107 kts | 326° |
| 2026-04-12 20:14 | -8.28934 | -35.98546 | 2702 ft | 96 kts | 277° |
| 2026-04-12 20:14 | -8.28800 | -35.99217 | 2468 ft | 100 kts | 278° |
| 2026-04-12 20:14 | -8.28623 | -35.99915 | 2123 ft | 105 kts | 286° |
| 2026-04-12 20:14 | -8.28427 | -36.00635 | 1846 ft | 104 kts | 282° |
| 2026-04-12 20:15 | -8.28260 | -36.01267 | 1851 ft | 82 kts | 284° |
| 2026-04-12 20:15 | -8.28153 | -36.01669 | 1869 ft | 35 kts | 284° |
| 2026-04-12 20:15 | -8.28117 | -36.01799 | 1873 ft | 11 kts | 287° |
| 2026-04-12 20:15 | -8.28099 | -36.01844 | 1875 ft | 3 kts | 304° |
| 2026-04-12 20:16 | -8.28104 | -36.01851 | 1875 ft | 3 kts | 165° |
| 2026-04-12 20:16 | -8.28121 | -36.01792 | 1873 ft | 15 kts | 103° |
| 2026-04-12 20:16 | -8.28148 | -36.01686 | 1870 ft | 16 kts | 104° |
| 2026-04-12 20:16 | -8.28171 | -36.01592 | 1865 ft | 13 kts | 105° |
| 2026-04-12 20:17 | -8.28203 | -36.01482 | 1859 ft | 18 kts | 105° |
| 2026-04-12 20:17 | -8.28232 | -36.01387 | 1854 ft | 12 kts | 117° |
| 2026-04-12 20:17 | -8.28276 | -36.01316 | 1852 ft | 12 kts | 123° |
| 2026-04-12 20:17 | -8.28312 | -36.01257 | 1850 ft | 9 kts | 122° |
| 2026-04-12 20:18 | -8.28346 | -36.01203 | 1847 ft | 10 kts | 122° |
| 2026-04-12 20:18 | -8.28384 | -36.01141 | 1845 ft | 12 kts | 121° |
| 2026-04-12 20:18 | -8.28414 | -36.01091 | 1844 ft | 6 kts | 138° |
| 2026-04-12 20:18 | -8.28448 | -36.01083 | 1844 ft | 0 kts | 192° |